sensor_id;sensor_type;location;lat;lon;timestamp;P1;durP1;ratioP1;P2;durP2;ratioP2
49440;SDS011;35317;51.978;6.296;2022-12-18T00:00:13;147.45;;;40.05;;
49440;SDS011;35317;51.978;6.296;2022-12-18T00:05:14;141.93;;;38.13;;
49440;SDS011;35317;51.978;6.296;2022-12-18T00:10:15;142.10;;;37.67;;
49440;SDS011;35317;51.978;6.296;2022-12-18T00:15:16;126.00;;;38.22;;
49440;SDS011;35317;51.978;6.296;2022-12-18T00:20:17;153.32;;;38.85;;
49440;SDS011;35317;51.978;6.296;2022-12-18T00:25:23;131.90;;;36.67;;
49440;SDS011;35317;51.978;6.296;2022-12-18T00:30:24;142.05;;;39.50;;
49440;SDS011;35317;51.978;6.296;2022-12-18T00:35:25;142.63;;;37.20;;
49440;SDS011;35317;51.978;6.296;2022-12-18T00:40:25;136.68;;;41.33;;
49440;SDS011;35317;51.978;6.296;2022-12-18T00:45:30;130.65;;;38.33;;
49440;SDS011;35317;51.978;6.296;2022-12-18T00:50:31;133.45;;;37.22;;
49440;SDS011;35317;51.978;6.296;2022-12-18T00:55:32;124.53;;;37.70;;
49440;SDS011;35317;51.978;6.296;2022-12-18T01:00:32;126.72;;;37.17;;
49440;SDS011;35317;51.978;6.296;2022-12-18T01:05:33;126.65;;;36.92;;
49440;SDS011;35317;51.978;6.296;2022-12-18T01:10:35;115.72;;;35.72;;
49440;SDS011;35317;51.978;6.296;2022-12-18T01:15:36;111.15;;;33.38;;
49440;SDS011;35317;51.978;6.296;2022-12-18T01:20:37;120.13;;;38.20;;
49440;SDS011;35317;51.978;6.296;2022-12-18T01:25:38;118.97;;;33.92;;
49440;SDS011;35317;51.978;6.296;2022-12-18T01:35:43;104.53;;;34.17;;
49440;SDS011;35317;51.978;6.296;2022-12-18T01:40:43;117.78;;;34.83;;
49440;SDS011;35317;51.978;6.296;2022-12-18T01:45:44;112.03;;;35.22;;
49440;SDS011;35317;51.978;6.296;2022-12-18T01:50:45;105.40;;;34.00;;
49440;SDS011;35317;51.978;6.296;2022-12-18T01:55:46;106.95;;;35.55;;
49440;SDS011;35317;51.978;6.296;2022-12-18T02:00:53;107.95;;;34.78;;
49440;SDS011;35317;51.978;6.296;2022-12-18T02:22:17;106.25;;;34.67;;
49440;SDS011;35317;51.978;6.296;2022-12-18T02:27:24;95.35;;;34.15;;
49440;SDS011;35317;51.978;6.296;2022-12-18T02:32:34;112.05;;;33.63;;
49440;SDS011;35317;51.978;6.296;2022-12-18T02:37:40;96.60;;;32.45;;
49440;SDS011;35317;51.978;6.296;2022-12-18T02:42:43;94.07;;;33.40;;
49440;SDS011;35317;51.978;6.296;2022-12-18T02:47:46;100.35;;;33.50;;
49440;SDS011;35317;51.978;6.296;2022-12-18T02:53:33;98.97;;;33.35;;
49440;SDS011;35317;51.978;6.296;2022-12-18T03:03:42;106.55;;;39.50;;
49440;SDS011;35317;51.978;6.296;2022-12-18T03:08:58;140.80;;;56.53;;
49440;SDS011;35317;51.978;6.296;2022-12-18T03:14:04;152.27;;;63.15;;
49440;SDS011;35317;51.978;6.296;2022-12-18T03:19:08;180.02;;;72.30;;
49440;SDS011;35317;51.978;6.296;2022-12-18T03:24:17;136.60;;;54.67;;
49440;SDS011;35317;51.978;6.296;2022-12-18T03:29:21;108.88;;;39.75;;
49440;SDS011;35317;51.978;6.296;2022-12-18T03:34:29;91.30;;;32.17;;
49440;SDS011;35317;51.978;6.296;2022-12-18T03:39:34;86.03;;;30.02;;
49440;SDS011;35317;51.978;6.296;2022-12-18T03:44:40;91.85;;;31.73;;
49440;SDS011;35317;51.978;6.296;2022-12-18T03:49:57;75.30;;;28.05;;
49440;SDS011;35317;51.978;6.296;2022-12-18T03:55:15;88.70;;;29.83;;
49440;SDS011;35317;51.978;6.296;2022-12-18T04:00:18;81.30;;;29.67;;
49440;SDS011;35317;51.978;6.296;2022-12-18T04:05:20;91.47;;;29.42;;
49440;SDS011;35317;51.978;6.296;2022-12-18T04:10:23;87.60;;;29.67;;
49440;SDS011;35317;51.978;6.296;2022-12-18T04:15:24;76.95;;;26.75;;
49440;SDS011;35317;51.978;6.296;2022-12-18T04:20:25;72.38;;;27.27;;
49440;SDS011;35317;51.978;6.296;2022-12-18T04:25:26;74.22;;;27.45;;
49440;SDS011;35317;51.978;6.296;2022-12-18T04:30:26;81.93;;;28.15;;
49440;SDS011;35317;51.978;6.296;2022-12-18T04:35:28;79.63;;;25.67;;
49440;SDS011;35317;51.978;6.296;2022-12-18T04:40:29;79.22;;;26.40;;
49440;SDS011;35317;51.978;6.296;2022-12-18T04:45:30;72.60;;;26.17;;
49440;SDS011;35317;51.978;6.296;2022-12-18T04:50:32;68.82;;;24.98;;
49440;SDS011;35317;51.978;6.296;2022-12-18T04:55:32;69.13;;;25.40;;
49440;SDS011;35317;51.978;6.296;2022-12-18T05:00:33;73.03;;;25.48;;
49440;SDS011;35317;51.978;6.296;2022-12-18T05:05:34;72.18;;;25.00;;
49440;SDS011;35317;51.978;6.296;2022-12-18T05:10:35;73.45;;;26.10;;
49440;SDS011;35317;51.978;6.296;2022-12-18T05:15:36;70.15;;;25.77;;
49440;SDS011;35317;51.978;6.296;2022-12-18T05:20:37;70.80;;;26.63;;
49440;SDS011;35317;51.978;6.296;2022-12-18T05:25:38;70.38;;;26.20;;
49440;SDS011;35317;51.978;6.296;2022-12-18T05:30:39;71.03;;;25.77;;
49440;SDS011;35317;51.978;6.296;2022-12-18T05:35:42;72.60;;;26.38;;
49440;SDS011;35317;51.978;6.296;2022-12-18T05:40:43;65.93;;;25.20;;
49440;SDS011;35317;51.978;6.296;2022-12-18T05:45:45;76.47;;;24.23;;
49440;SDS011;35317;51.978;6.296;2022-12-18T05:50:46;71.25;;;23.20;;
49440;SDS011;35317;51.978;6.296;2022-12-18T05:55:49;69.43;;;24.13;;
49440;SDS011;35317;51.978;6.296;2022-12-18T06:00:50;67.03;;;24.98;;
49440;SDS011;35317;51.978;6.296;2022-12-18T06:05:50;59.78;;;24.10;;
49440;SDS011;35317;51.978;6.296;2022-12-18T06:10:51;59.35;;;23.70;;
49440;SDS011;35317;51.978;6.296;2022-12-18T06:15:53;70.10;;;25.35;;
49440;SDS011;35317;51.978;6.296;2022-12-18T06:20:57;73.55;;;24.73;;
49440;SDS011;35317;51.978;6.296;2022-12-18T06:26:03;65.75;;;24.35;;
49440;SDS011;35317;51.978;6.296;2022-12-18T06:31:09;66.10;;;23.85;;
49440;SDS011;35317;51.978;6.296;2022-12-18T06:36:11;77.68;;;26.25;;
49440;SDS011;35317;51.978;6.296;2022-12-18T06:41:14;61.27;;;23.97;;
49440;SDS011;35317;51.978;6.296;2022-12-18T06:46:18;76.20;;;25.42;;
49440;SDS011;35317;51.978;6.296;2022-12-18T06:51:20;67.75;;;23.90;;
49440;SDS011;35317;51.978;6.296;2022-12-18T06:56:23;77.78;;;25.20;;
49440;SDS011;35317;51.978;6.296;2022-12-18T07:01:24;68.78;;;26.08;;
49440;SDS011;35317;51.978;6.296;2022-12-18T07:06:25;71.78;;;24.33;;
49440;SDS011;35317;51.978;6.296;2022-12-18T07:11:26;70.80;;;23.30;;
49440;SDS011;35317;51.978;6.296;2022-12-18T07:16:27;74.28;;;24.23;;
49440;SDS011;35317;51.978;6.296;2022-12-18T07:21:31;65.80;;;24.42;;
49440;SDS011;35317;51.978;6.296;2022-12-18T07:26:32;67.28;;;23.55;;
49440;SDS011;35317;51.978;6.296;2022-12-18T07:31:33;63.35;;;23.10;;
49440;SDS011;35317;51.978;6.296;2022-12-18T07:36:34;61.17;;;22.60;;
49440;SDS011;35317;51.978;6.296;2022-12-18T07:41:35;55.28;;;22.38;;
49440;SDS011;35317;51.978;6.296;2022-12-18T07:46:35;53.83;;;21.10;;
49440;SDS011;35317;51.978;6.296;2022-12-18T07:51:36;58.08;;;21.63;;
49440;SDS011;35317;51.978;6.296;2022-12-18T07:56:37;55.25;;;21.52;;
49440;SDS011;35317;51.978;6.296;2022-12-18T08:01:38;39.13;;;14.95;;
49440;SDS011;35317;51.978;6.296;2022-12-18T08:06:39;51.42;;;19.00;;
49440;SDS011;35317;51.978;6.296;2022-12-18T08:11:39;41.58;;;17.25;;
49440;SDS011;35317;51.978;6.296;2022-12-18T08:16:40;46.10;;;17.88;;
49440;SDS011;35317;51.978;6.296;2022-12-18T08:21:41;46.20;;;18.67;;
49440;SDS011;35317;51.978;6.296;2022-12-18T08:26:46;46.85;;;19.05;;
49440;SDS011;35317;51.978;6.296;2022-12-18T08:31:46;46.47;;;17.80;;
49440;SDS011;35317;51.978;6.296;2022-12-18T08:36:47;45.85;;;18.75;;
49440;SDS011;35317;51.978;6.296;2022-12-18T08:41:48;43.10;;;17.52;;
49440;SDS011;35317;51.978;6.296;2022-12-18T08:47:09;38.28;;;16.27;;
49440;SDS011;35317;51.978;6.296;2022-12-18T08:52:10;38.00;;;15.75;;
49440;SDS011;35317;51.978;6.296;2022-12-18T08:57:11;36.22;;;15.73;;
49440;SDS011;35317;51.978;6.296;2022-12-18T09:02:11;31.58;;;14.48;;
49440;SDS011;35317;51.978;6.296;2022-12-18T09:07:12;29.75;;;15.07;;
49440;SDS011;35317;51.978;6.296;2022-12-18T09:12:13;30.40;;;14.27;;
49440;SDS011;35317;51.978;6.296;2022-12-18T09:17:15;28.15;;;14.00;;
49440;SDS011;35317;51.978;6.296;2022-12-18T09:22:16;28.98;;;13.85;;
49440;SDS011;35317;51.978;6.296;2022-12-18T09:27:17;33.13;;;13.70;;
49440;SDS011;35317;51.978;6.296;2022-12-18T09:32:17;30.13;;;13.88;;
49440;SDS011;35317;51.978;6.296;2022-12-18T09:37:18;26.52;;;13.27;;
49440;SDS011;35317;51.978;6.296;2022-12-18T09:42:22;26.10;;;13.27;;
49440;SDS011;35317;51.978;6.296;2022-12-18T09:47:24;28.08;;;14.30;;
49440;SDS011;35317;51.978;6.296;2022-12-18T09:52:33;25.63;;;13.27;;
49440;SDS011;35317;51.978;6.296;2022-12-18T09:57:42;30.08;;;13.85;;
49440;SDS011;35317;51.978;6.296;2022-12-18T10:02:50;25.75;;;13.20;;
49440;SDS011;35317;51.978;6.296;2022-12-18T10:08:12;22.13;;;11.60;;
49440;SDS011;35317;51.978;6.296;2022-12-18T10:29:36;24.40;;;11.70;;
49440;SDS011;35317;51.978;6.296;2022-12-18T10:34:38;23.70;;;12.00;;
49440;SDS011;35317;51.978;6.296;2022-12-18T10:39:38;21.20;;;11.07;;
49440;SDS011;35317;51.978;6.296;2022-12-18T10:44:39;26.63;;;12.25;;
49440;SDS011;35317;51.978;6.296;2022-12-18T10:49:42;21.73;;;11.52;;
49440;SDS011;35317;51.978;6.296;2022-12-18T10:54:53;21.92;;;11.38;;
49440;SDS011;35317;51.978;6.296;2022-12-18T10:59:58;22.85;;;11.93;;
49440;SDS011;35317;51.978;6.296;2022-12-18T11:05:34;20.92;;;10.90;;
49440;SDS011;35317;51.978;6.296;2022-12-18T11:10:37;25.30;;;11.80;;
49440;SDS011;35317;51.978;6.296;2022-12-18T11:15:40;22.67;;;10.88;;
49440;SDS011;35317;51.978;6.296;2022-12-18T11:20:42;18.98;;;10.73;;
49440;SDS011;35317;51.978;6.296;2022-12-18T11:25:50;22.02;;;10.95;;
49440;SDS011;35317;51.978;6.296;2022-12-18T11:31:16;19.10;;;11.15;;
49440;SDS011;35317;51.978;6.296;2022-12-18T11:36:19;22.20;;;9.93;;
49440;SDS011;35317;51.978;6.296;2022-12-18T11:46:53;19.50;;;9.98;;
49440;SDS011;35317;51.978;6.296;2022-12-18T11:52:04;18.40;;;9.65;;
49440;SDS011;35317;51.978;6.296;2022-12-18T11:57:34;19.45;;;10.20;;
49440;SDS011;35317;51.978;6.296;2022-12-18T12:03:14;20.02;;;10.00;;
49440;SDS011;35317;51.978;6.296;2022-12-18T12:14:05;17.83;;;9.13;;
49440;SDS011;35317;51.978;6.296;2022-12-18T12:19:26;22.63;;;11.55;;
49440;SDS011;35317;51.978;6.296;2022-12-18T12:24:45;22.15;;;11.85;;
49440;SDS011;35317;51.978;6.296;2022-12-18T12:30:25;19.55;;;10.85;;
49440;SDS011;35317;51.978;6.296;2022-12-18T12:41:00;20.02;;;9.60;;
49440;SDS011;35317;51.978;6.296;2022-12-18T12:46:27;19.08;;;10.40;;
49440;SDS011;35317;51.978;6.296;2022-12-18T12:51:36;18.38;;;10.40;;
49440;SDS011;35317;51.978;6.296;2022-12-18T13:01:58;17.40;;;10.68;;
49440;SDS011;35317;51.978;6.296;2022-12-18T13:07:19;18.17;;;9.82;;
49440;SDS011;35317;51.978;6.296;2022-12-18T13:12:28;19.00;;;10.57;;
49440;SDS011;35317;51.978;6.296;2022-12-18T13:17:47;16.38;;;9.95;;
49440;SDS011;35317;51.978;6.296;2022-12-18T13:22:48;19.05;;;11.07;;
49440;SDS011;35317;51.978;6.296;2022-12-18T13:28:00;19.17;;;10.57;;
49440;SDS011;35317;51.978;6.296;2022-12-18T13:43:37;18.30;;;10.40;;
49440;SDS011;35317;51.978;6.296;2022-12-18T13:49:01;19.98;;;10.13;;
49440;SDS011;35317;51.978;6.296;2022-12-18T13:59:39;17.00;;;10.43;;
49440;SDS011;35317;51.978;6.296;2022-12-18T14:04:40;18.05;;;10.02;;
49440;SDS011;35317;51.978;6.296;2022-12-18T14:09:52;19.65;;;10.45;;
49440;SDS011;35317;51.978;6.296;2022-12-18T14:14:57;18.05;;;10.25;;
49440;SDS011;35317;51.978;6.296;2022-12-18T14:19:59;20.88;;;11.27;;
49440;SDS011;35317;51.978;6.296;2022-12-18T14:25:33;19.73;;;10.25;;
49440;SDS011;35317;51.978;6.296;2022-12-18T14:30:31;20.52;;;11.00;;
49440;SDS011;35317;51.978;6.296;2022-12-18T14:35:37;17.00;;;9.52;;
49440;SDS011;35317;51.978;6.296;2022-12-18T14:40:43;19.10;;;10.38;;
49440;SDS011;35317;51.978;6.296;2022-12-18T14:45:44;25.67;;;10.40;;
49440;SDS011;35317;51.978;6.296;2022-12-18T14:50:53;19.77;;;10.48;;
49440;SDS011;35317;51.978;6.296;2022-12-18T14:55:57;28.02;;;11.35;;
49440;SDS011;35317;51.978;6.296;2022-12-18T15:00:58;18.95;;;10.45;;
49440;SDS011;35317;51.978;6.296;2022-12-18T15:06:14;21.15;;;10.60;;
49440;SDS011;35317;51.978;6.296;2022-12-18T15:11:34;21.73;;;11.38;;
49440;SDS011;35317;51.978;6.296;2022-12-18T15:16:44;19.73;;;10.65;;
49440;SDS011;35317;51.978;6.296;2022-12-18T15:21:56;22.00;;;11.85;;
49440;SDS011;35317;51.978;6.296;2022-12-18T15:26:57;19.70;;;11.13;;
49440;SDS011;35317;51.978;6.296;2022-12-18T15:32:10;23.15;;;11.70;;
49440;SDS011;35317;51.978;6.296;2022-12-18T15:37:20;26.85;;;13.07;;
49440;SDS011;35317;51.978;6.296;2022-12-18T15:42:21;24.75;;;13.02;;
49440;SDS011;35317;51.978;6.296;2022-12-18T15:47:40;22.83;;;12.20;;
49440;SDS011;35317;51.978;6.296;2022-12-18T15:52:45;26.25;;;12.93;;
49440;SDS011;35317;51.978;6.296;2022-12-18T15:57:49;27.23;;;13.35;;
49440;SDS011;35317;51.978;6.296;2022-12-18T16:02:50;25.30;;;13.00;;
49440;SDS011;35317;51.978;6.296;2022-12-18T16:07:51;29.33;;;13.60;;
49440;SDS011;35317;51.978;6.296;2022-12-18T16:12:52;26.00;;;13.02;;
49440;SDS011;35317;51.978;6.296;2022-12-18T16:17:52;29.08;;;14.25;;
49440;SDS011;35317;51.978;6.296;2022-12-18T16:22:53;29.10;;;14.70;;
49440;SDS011;35317;51.978;6.296;2022-12-18T16:27:54;30.02;;;14.23;;
49440;SDS011;35317;51.978;6.296;2022-12-18T16:32:57;26.92;;;14.20;;
49440;SDS011;35317;51.978;6.296;2022-12-18T16:37:58;30.88;;;14.93;;
49440;SDS011;35317;51.978;6.296;2022-12-18T16:42:59;31.60;;;15.60;;
49440;SDS011;35317;51.978;6.296;2022-12-18T16:48:00;36.25;;;15.52;;
49440;SDS011;35317;51.978;6.296;2022-12-18T16:53:00;33.00;;;15.93;;
49440;SDS011;35317;51.978;6.296;2022-12-18T16:58:01;33.33;;;16.60;;
49440;SDS011;35317;51.978;6.296;2022-12-18T17:03:02;30.02;;;16.13;;
49440;SDS011;35317;51.978;6.296;2022-12-18T17:08:03;30.92;;;16.23;;
49440;SDS011;35317;51.978;6.296;2022-12-18T17:13:04;33.67;;;16.17;;
49440;SDS011;35317;51.978;6.296;2022-12-18T17:18:04;32.97;;;16.88;;
49440;SDS011;35317;51.978;6.296;2022-12-18T17:23:08;34.58;;;17.35;;
49440;SDS011;35317;51.978;6.296;2022-12-18T17:28:09;34.10;;;16.92;;
49440;SDS011;35317;51.978;6.296;2022-12-18T17:33:11;43.88;;;20.40;;
49440;SDS011;35317;51.978;6.296;2022-12-18T17:38:11;35.65;;;17.52;;
49440;SDS011;35317;51.978;6.296;2022-12-18T17:43:13;36.78;;;17.67;;
49440;SDS011;35317;51.978;6.296;2022-12-18T17:48:14;35.55;;;18.38;;
49440;SDS011;35317;51.978;6.296;2022-12-18T17:53:14;36.88;;;18.02;;
49440;SDS011;35317;51.978;6.296;2022-12-18T17:58:16;38.28;;;18.63;;
49440;SDS011;35317;51.978;6.296;2022-12-18T18:03:17;41.55;;;18.75;;
49440;SDS011;35317;51.978;6.296;2022-12-18T18:08:18;42.60;;;20.83;;
49440;SDS011;35317;51.978;6.296;2022-12-18T18:18:42;36.60;;;16.05;;
49440;SDS011;35317;51.978;6.296;2022-12-18T18:23:42;42.97;;;18.90;;
49440;SDS011;35317;51.978;6.296;2022-12-18T18:28:43;35.25;;;16.83;;
49440;SDS011;35317;51.978;6.296;2022-12-18T18:33:44;43.25;;;20.20;;
49440;SDS011;35317;51.978;6.296;2022-12-18T18:38:45;40.20;;;19.35;;
49440;SDS011;35317;51.978;6.296;2022-12-18T18:43:46;36.90;;;19.05;;
49440;SDS011;35317;51.978;6.296;2022-12-18T18:48:47;44.83;;;20.33;;
49440;SDS011;35317;51.978;6.296;2022-12-18T18:53:51;40.58;;;19.83;;
49440;SDS011;35317;51.978;6.296;2022-12-18T18:58:56;41.85;;;20.23;;
49440;SDS011;35317;51.978;6.296;2022-12-18T19:03:57;39.28;;;19.80;;
49440;SDS011;35317;51.978;6.296;2022-12-18T19:08:59;40.25;;;20.52;;
49440;SDS011;35317;51.978;6.296;2022-12-18T19:14:04;41.22;;;20.23;;
49440;SDS011;35317;51.978;6.296;2022-12-18T19:19:07;41.90;;;19.92;;
49440;SDS011;35317;51.978;6.296;2022-12-18T19:24:11;45.67;;;21.52;;
49440;SDS011;35317;51.978;6.296;2022-12-18T19:29:12;47.33;;;21.42;;
49440;SDS011;35317;51.978;6.296;2022-12-18T19:34:16;40.67;;;21.58;;
49440;SDS011;35317;51.978;6.296;2022-12-18T19:39:17;41.13;;;21.35;;
49440;SDS011;35317;51.978;6.296;2022-12-18T19:44:18;47.78;;;21.67;;
49440;SDS011;35317;51.978;6.296;2022-12-18T19:49:19;43.83;;;21.70;;
49440;SDS011;35317;51.978;6.296;2022-12-18T19:54:20;44.67;;;21.88;;
49440;SDS011;35317;51.978;6.296;2022-12-18T19:59:21;46.75;;;22.75;;
49440;SDS011;35317;51.978;6.296;2022-12-18T20:04:22;48.70;;;22.77;;
49440;SDS011;35317;51.978;6.296;2022-12-18T20:09:23;41.38;;;22.02;;
49440;SDS011;35317;51.978;6.296;2022-12-18T20:14:23;43.63;;;20.02;;
49440;SDS011;35317;51.978;6.296;2022-12-18T20:19:25;44.17;;;20.75;;
49440;SDS011;35317;51.978;6.296;2022-12-18T20:24:26;44.88;;;22.13;;
49440;SDS011;35317;51.978;6.296;2022-12-18T20:29:26;49.10;;;24.52;;
49440;SDS011;35317;51.978;6.296;2022-12-18T20:34:27;48.22;;;22.98;;
49440;SDS011;35317;51.978;6.296;2022-12-18T20:39:28;48.13;;;22.67;;
49440;SDS011;35317;51.978;6.296;2022-12-18T20:44:29;51.33;;;24.02;;
49440;SDS011;35317;51.978;6.296;2022-12-18T20:49:31;49.20;;;22.20;;
49440;SDS011;35317;51.978;6.296;2022-12-18T20:54:32;51.40;;;23.55;;
49440;SDS011;35317;51.978;6.296;2022-12-18T20:59:33;47.17;;;22.55;;
49440;SDS011;35317;51.978;6.296;2022-12-18T21:04:33;49.50;;;23.75;;
49440;SDS011;35317;51.978;6.296;2022-12-18T21:09:34;50.28;;;23.75;;
49440;SDS011;35317;51.978;6.296;2022-12-18T21:14:35;51.05;;;24.30;;
49440;SDS011;35317;51.978;6.296;2022-12-18T21:19:36;54.72;;;25.35;;
49440;SDS011;35317;51.978;6.296;2022-12-18T21:24:37;58.15;;;25.40;;
49440;SDS011;35317;51.978;6.296;2022-12-18T21:29:38;61.80;;;25.83;;
49440;SDS011;35317;51.978;6.296;2022-12-18T21:34:38;56.33;;;27.15;;
49440;SDS011;35317;51.978;6.296;2022-12-18T21:39:39;58.92;;;27.30;;
49440;SDS011;35317;51.978;6.296;2022-12-18T21:44:40;56.38;;;26.40;;
49440;SDS011;35317;51.978;6.296;2022-12-18T21:49:42;59.90;;;26.75;;
49440;SDS011;35317;51.978;6.296;2022-12-18T21:54:43;63.50;;;29.33;;
49440;SDS011;35317;51.978;6.296;2022-12-18T21:59:44;61.85;;;28.13;;
49440;SDS011;35317;51.978;6.296;2022-12-18T22:31:15;61.35;;;27.33;;
49440;SDS011;35317;51.978;6.296;2022-12-18T22:36:16;63.72;;;29.30;;
49440;SDS011;35317;51.978;6.296;2022-12-18T22:41:17;60.70;;;28.45;;
49440;SDS011;35317;51.978;6.296;2022-12-18T22:46:18;58.78;;;26.13;;
49440;SDS011;35317;51.978;6.296;2022-12-18T22:51:22;58.42;;;26.67;;
49440;SDS011;35317;51.978;6.296;2022-12-18T22:56:23;65.18;;;28.58;;
49440;SDS011;35317;51.978;6.296;2022-12-18T23:01:25;67.18;;;28.65;;
49440;SDS011;35317;51.978;6.296;2022-12-18T23:06:28;69.78;;;29.60;;
49440;SDS011;35317;51.978;6.296;2022-12-18T23:11:29;64.03;;;29.25;;
49440;SDS011;35317;51.978;6.296;2022-12-18T23:16:30;63.95;;;26.63;;
49440;SDS011;35317;51.978;6.296;2022-12-18T23:21:30;67.50;;;30.02;;
49440;SDS011;35317;51.978;6.296;2022-12-18T23:26:31;69.75;;;31.25;;
49440;SDS011;35317;51.978;6.296;2022-12-18T23:31:33;60.30;;;27.27;;
49440;SDS011;35317;51.978;6.296;2022-12-18T23:36:37;65.78;;;29.58;;
49440;SDS011;35317;51.978;6.296;2022-12-18T23:41:38;74.07;;;29.55;;
49440;SDS011;35317;51.978;6.296;2022-12-18T23:46:38;68.47;;;29.63;;
49440;SDS011;35317;51.978;6.296;2022-12-18T23:51:39;65.07;;;28.67;;
49440;SDS011;35317;51.978;6.296;2022-12-18T23:56:40;64.25;;;29.30;;
